»·PEaware :: N261MG KGEG-KEGE

N261MG :: KGEG-KEGE

FLIGHT INFORMATION

Flight Status: Arrived
Operator: Privately registered:
United States
More flights under this callsign
Pilot: Marty O. (15602)
Aircraft: ECLIPSE 500
(EA50)
More flights by this aircraft type
Origin: KGEG Spokane Intl
United States
Destination: KEGE Eagle Co Regl
United States
More flights between these airports :: More routes between these airports
Route: GEG4 GEG J52 OCS EKR RLG
File this flight plan on PilotEdge
Remarks:
Altitude:
(Current/Filed)
41,000ft
Speed:
(Current/Filed)
340kts
Departed: 12-Jan-19 03:09 PM
Arrived: 12-Jan-19 05:41 PM
Distance/Time
Traveled:
664nm/2:32
Distance/Time
To Go:
Arrived

Flight Plot

Page will automatically refresh every two minutes.

Flight plan parsing failed; only flown route is shown


Map Options




Map Legend


Flown Route
Filed Route
Departure Airport
Arrival Airport
Navaid (VOR, NDB)
Fix

Horizontal Profiles

Position Reports

Time Latitude Longitude Heading Altitude Ground
Speed
12-Jan-19 14:54 47.620570 -117.526793 270 2357ft 0kts
12-Jan-19 14:55 47.620570 -117.526793 270 2357ft 0kts
12-Jan-19 14:56 47.620570 -117.526793 270 2357ft 0kts
12-Jan-19 14:57 47.620570 -117.526793 270 2357ft 0kts
12-Jan-19 14:58 47.620570 -117.526793 270 2357ft 0kts
12-Jan-19 14:59 47.620570 -117.526793 270 2357ft 0kts
12-Jan-19 15:00 47.620570 -117.526912 270 2357ft 7kts
12-Jan-19 15:01 47.621290 -117.529258 292 2356ft 4kts
12-Jan-19 15:02 47.617535 -117.535354 225 2367ft 28kts
12-Jan-19 15:03 47.614014 -117.540721 224 2375ft 13kts
12-Jan-19 15:04 47.610878 -117.545393 225 2381ft 6kts
12-Jan-19 15:05 47.609297 -117.547780 228 2384ft 5kts
12-Jan-19 15:06 47.609320 -117.548797 309 2384ft 0kts
12-Jan-19 15:06 47.609357 -117.548860 310 2384ft 0kts
12-Jan-19 15:07 47.609464 -117.549027 314 2384ft 9kts
12-Jan-19 15:08 47.614922 -117.542770 45 2382ft 106kts
12-Jan-19 15:09 47.633811 -117.513155 46 3661ft 170kts
12-Jan-19 15:10 47.661422 -117.470561 43 6223ft 184kts
12-Jan-19 15:11 47.696717 -117.420417 63 8926ft 195kts
12-Jan-19 15:12 47.660864 -117.371836 153 11783ft 184kts
12-Jan-19 15:13 47.604469 -117.324201 154 14870ft 190kts
12-Jan-19 15:14 47.542336 -117.271722 154 17855ft 193kts
12-Jan-19 15:15 47.484023 -117.221309 154 21425ft 130kts
12-Jan-19 15:16 47.427242 -117.171958 154 22645ft 193kts
12-Jan-19 15:17 47.367137 -117.120274 154 24813ft 188kts
12-Jan-19 15:18 47.317634 -117.077644 154 26226ft 194kts
12-Jan-19 15:19 47.270152 -117.037290 154 27359ft 204kts
12-Jan-19 15:20 47.219345 -116.994971 154 28437ft 214kts
12-Jan-19 15:21 47.167964 -116.952806 153 29729ft 208kts
12-Jan-19 15:22 47.117179 -116.911729 153 30736ft 211kts
12-Jan-19 15:23 47.064972 -116.871550 153 31641ft 215kts
12-Jan-19 15:24 47.017016 -116.818350 139 32633ft 215kts
12-Jan-19 15:25 46.974075 -116.758832 137 33510ft 213kts
12-Jan-19 15:26 46.931366 -116.698087 136 34248ft 216kts
12-Jan-19 15:27 46.888288 -116.636395 135 34922ft 219kts
12-Jan-19 15:28 46.844545 -116.573683 135 35556ft 221kts
12-Jan-19 15:29 46.800448 -116.510582 135 36160ft 224kts
12-Jan-19 15:30 46.755608 -116.446575 135 36722ft 227kts
12-Jan-19 15:31 46.710270 -116.382010 135 37250ft 230kts
12-Jan-19 15:32 46.665832 -116.318888 136 37729ft 233kts
12-Jan-19 15:33 46.619351 -116.253022 136 38197ft 235kts
12-Jan-19 15:34 46.572127 -116.186276 136 38622ft 238kts
12-Jan-19 15:35 46.524485 -116.119110 136 39016ft 240kts
12-Jan-19 15:36 46.476509 -116.051649 136 39386ft 242kts
12-Jan-19 15:37 46.427874 -115.983442 136 39736ft 244kts
12-Jan-19 15:38 46.378976 -115.915045 136 40065ft 246kts
12-Jan-19 15:39 46.329612 -115.846177 136 40374ft 248kts
12-Jan-19 15:40 46.279828 -115.776913 136 40646ft 249kts
12-Jan-19 15:41 46.229718 -115.707383 136 40883ft 251kts
12-Jan-19 15:42 46.179422 -115.637773 136 41106ft 252kts
12-Jan-19 15:43 46.128464 -115.567435 136 41201ft 259kts
12-Jan-19 15:44 46.075269 -115.494206 136 41201ft 270kts
12-Jan-19 15:45 46.019789 -115.418054 136 41201ft 281kts
12-Jan-19 15:46 45.962734 -115.339978 136 41201ft 291kts
12-Jan-19 15:47 45.903352 -115.258967 136 41201ft 299kts
12-Jan-19 15:48 45.842024 -115.175573 136 41202ft 307kts
12-Jan-19 15:49 45.779371 -115.090678 136 41202ft 314kts
12-Jan-19 15:50 45.715505 -115.004381 135 41234ft 319kts
12-Jan-19 15:51 45.650779 -114.917183 135 41330ft 321kts
12-Jan-19 15:52 45.586519 -114.830896 135 41392ft 324kts
12-Jan-19 15:53 45.520511 -114.742592 135 41393ft 329kts
12-Jan-19 15:54 45.453393 -114.653107 135 41393ft 332kts
12-Jan-19 15:55 45.385539 -114.562956 135 41393ft 335kts
12-Jan-19 15:56 45.317239 -114.472521 135 41392ft 338kts
12-Jan-19 15:57 45.248210 -114.381434 135 41392ft 340kts
12-Jan-19 15:58 45.178690 -114.290025 136 41394ft 342kts
12-Jan-19 15:59 45.108795 -114.198451 136 41394ft 344kts
12-Jan-19 16:00 45.038567 -114.106829 135 41394ft 345kts
12-Jan-19 16:01 44.981357 -114.001678 121 41394ft 342kts
12-Jan-19 16:02 44.928007 -113.891139 121 41393ft 341kts
12-Jan-19 16:03 44.874489 -113.780845 121 41391ft 341kts
12-Jan-19 16:04 44.821635 -113.672401 121 41391ft 340kts
12-Jan-19 16:05 44.768311 -113.563396 121 41389ft 339kts
12-Jan-19 16:06 44.714927 -113.454663 121 41390ft 339kts
12-Jan-19 16:07 44.662037 -113.347369 121 41390ft 338kts
12-Jan-19 16:08 44.608235 -113.238637 121 41376ft 339kts
12-Jan-19 16:09 44.554319 -113.130053 121 41301ft 341kts
12-Jan-19 16:10 44.499945 -113.021003 121 41231ft 343kts
12-Jan-19 16:11 44.445485 -112.912263 120 41228ft 342kts
12-Jan-19 16:12 44.390772 -112.803373 120 41227ft 342kts
12-Jan-19 16:13 44.336299 -112.695208 119 41247ft 340kts
12-Jan-19 16:14 44.282050 -112.587973 119 41283ft 339kts
12-Jan-19 16:15 44.227671 -112.480915 119 41294ft 338kts
12-Jan-19 16:16 44.173247 -112.374140 119 41292ft 338kts
12-Jan-19 16:17 44.118910 -112.267959 120 41296ft 338kts
12-Jan-19 16:18 44.057773 -112.167711 130 41296ft 344kts
12-Jan-19 16:19 43.989408 -112.074932 130 41295ft 345kts
12-Jan-19 16:20 43.920453 -111.981994 130 41295ft 346kts
12-Jan-19 16:21 43.851644 -111.889602 130 41290ft 346kts
12-Jan-19 16:22 43.782447 -111.797035 130 41290ft 345kts
12-Jan-19 16:23 43.713443 -111.705036 130 41290ft 345kts
12-Jan-19 16:24 43.644593 -111.613551 130 41289ft 345kts
12-Jan-19 16:25 43.575647 -111.522225 130 41282ft 345kts
12-Jan-19 16:26 43.506351 -111.430771 130 41271ft 345kts
12-Jan-19 16:27 43.437192 -111.339796 131 41266ft 345kts
12-Jan-19 16:28 43.367900 -111.248914 131 41267ft 346kts
12-Jan-19 16:29 43.298738 -111.158540 131 41267ft 346kts
12-Jan-19 16:30 43.228865 -111.067570 130 41270ft 347kts
12-Jan-19 16:31 43.158891 -110.976746 130 41274ft 348kts
12-Jan-19 16:32 43.088590 -110.885790 129 41273ft 349kts
12-Jan-19 16:33 43.018201 -110.795008 129 41267ft 350kts
12-Jan-19 16:34 42.947391 -110.704038 128 41267ft 350kts
12-Jan-19 16:35 42.876500 -110.613261 127 41258ft 350kts
12-Jan-19 16:36 42.805772 -110.522861 127 41256ft 348kts
12-Jan-19 16:37 42.735280 -110.433139 127 41256ft 347kts
12-Jan-19 16:38 42.665008 -110.343972 128 41258ft 346kts
12-Jan-19 16:39 42.594716 -110.255079 128 41264ft 346kts
12-Jan-19 16:40 42.524297 -110.166351 128 41267ft 347kts
12-Jan-19 16:41 42.453499 -110.077387 128 41266ft 348kts
12-Jan-19 16:42 42.382517 -109.988516 128 41266ft 349kts
12-Jan-19 16:43 42.311465 -109.899812 128 41266ft 349kts
12-Jan-19 16:44 42.240124 -109.811054 128 41268ft 349kts
12-Jan-19 16:45 42.168705 -109.722485 128 41267ft 350kts
12-Jan-19 16:46 42.097094 -109.633937 128 41233ft 351kts
12-Jan-19 16:47 42.024933 -109.545006 128 41094ft 354kts
12-Jan-19 16:48 41.952368 -109.455905 128 41008ft 356kts
12-Jan-19 16:49 41.879264 -109.366433 128 40990ft 354kts
12-Jan-19 16:50 41.807020 -109.278263 128 41001ft 353kts
12-Jan-19 16:51 41.732656 -109.187729 129 40217ft 374kts
12-Jan-19 16:53 41.653998 -109.092373 129 39221ft 390kts
12-Jan-19 16:54 41.568779 -108.999616 143 38203ft 410kts
12-Jan-19 16:55 41.468519 -108.926067 143 37141ft 414kts
12-Jan-19 16:56 41.380932 -108.836468 110 35714ft 386kts
12-Jan-19 16:57 41.321360 -108.714966 118 34001ft 400kts
12-Jan-19 16:58 41.254835 -108.594606 119 31985ft 410kts
12-Jan-19 16:59 41.186467 -108.473014 120 30559ft 410kts
12-Jan-19 17:00 41.117656 -108.351228 120 29338ft 412kts
12-Jan-19 17:01 41.049495 -108.230873 123 28376ft 412kts
12-Jan-19 17:02 40.981746 -108.112003 125 27372ft 380kts
12-Jan-19 17:03 40.922137 -108.007857 125 26261ft 352kts
12-Jan-19 17:04 40.864421 -107.907316 125 25365ft 345kts
12-Jan-19 17:05 40.806413 -107.806510 125 24454ft 346kts
12-Jan-19 17:06 40.748257 -107.705786 125 23551ft 345kts
12-Jan-19 17:07 40.690138 -107.605450 125 22643ft 345kts
12-Jan-19 17:08 40.632010 -107.505425 125 21730ft 344kts
12-Jan-19 17:09 40.573813 -107.405578 125 20827ft 344kts
12-Jan-19 17:10 40.519389 -107.312513 126 19982ft 343kts
12-Jan-19 17:11 40.469237 -107.227076 126 19141ft 294kts
12-Jan-19 17:12 40.426968 -107.155206 126 18327ft 269kts
12-Jan-19 17:13 40.383341 -107.081159 126 17442ft 258kts
12-Jan-19 17:13 40.348325 -107.021867 126 16720ft 254kts
12-Jan-19 17:14 40.311330 -106.959375 126 15877ft 223kts
12-Jan-19 17:15 40.276633 -106.900820 126 15090ft 223kts
12-Jan-19 17:17 40.236296 -106.832908 126 15040ft 225kts
12-Jan-19 17:18 40.196253 -106.765635 126 15038ft 268kts
12-Jan-19 17:18 40.158994 -106.703220 127 15037ft 273kts
12-Jan-19 17:20 40.105969 -106.614580 127 15025ft 272kts
12-Jan-19 17:21 40.063282 -106.543415 126 15015ft 223kts
12-Jan-19 17:21 40.029919 -106.487865 126 15006ft 226kts
12-Jan-19 17:22 39.981018 -106.451115 198 15006ft 227kts
12-Jan-19 17:23 39.923734 -106.475631 198 14995ft 192kts
12-Jan-19 17:24 39.873393 -106.496947 198 14998ft 191kts
12-Jan-19 17:25 39.822827 -106.518251 198 14998ft 191kts
12-Jan-19 17:26 39.772313 -106.539474 198 14997ft 191kts
12-Jan-19 17:27 39.721675 -106.560708 198 14852ft 192kts
12-Jan-19 17:28 39.688130 -106.594934 262 14340ft 147kts
12-Jan-19 17:29 39.681204 -106.647681 261 13839ft 148kts
12-Jan-19 17:30 39.674074 -106.698335 261 13246ft 149kts
12-Jan-19 17:31 39.667434 -106.744386 261 12505ft 120kts
12-Jan-19 17:32 39.661090 -106.787263 263 11713ft 137kts
12-Jan-19 17:33 39.654074 -106.833179 258 10625ft 149kts
12-Jan-19 17:34 39.645479 -106.889384 262 7453ft 168kts
12-Jan-19 17:35 39.640635 -106.936125 277 6809ft 106kts
12-Jan-19 17:36 39.658399 -106.940198 68 7508ft 90kts
12-Jan-19 17:37 39.665782 -106.902302 73 8043ft 116kts
12-Jan-19 17:38 39.648615 -106.878433 219 7701ft 108kts
12-Jan-19 17:39 39.642507 -106.918025 263 6548ft 74kts
12-Jan-19 17:40 39.642424 -106.918685 84 6548ft 33kts
12-Jan-19 17:41 39.641884 -106.913667 79 6548ft 15kts

Navigation Log

Ident Type
Flight plan parsing failed, navigation log unavailable